Jamesville, Virginia
Current Conditions -  °F | °C
As of 11:15 AM on Monday 24 Nov 2014 (Local Time) from KMFV Reporting Station
Scattered Clouds Scattered Clouds  
Wind Chill: 70°   Ceiling: Unl
Heat Index: 70°   Visibility: 10mi
Dew Point: 59°   Wind: 18mph
Humidity: 68%   Direction: 220°SW
Pressure: 29.78"   Gusts: 30mph
Location:  37.51°N, 75.93°W
Report Text: KMFV 241615Z AUTO 22016G26KT 10SM SCT023 21/15 A2978 RMK AO2
Loading
Personal Weather Stations






























Interactive Weather Map New forecast layout! Learn more

10-Day Weather Forecast

Advertisements
Track Severe Weather on mobile